FFT1682 KMYR-KISP
Flight info
| Callsign | FFT1682 |
|---|---|
| Flight time | 1h 26m |
| Altitude | 35000 |
| Route | ELLDE SAWED Q97 KALDA SARDI1 |
| Aircraft | A321/M-SDE3FGHIRWY/LB1 |
Departure
| Time | 2026-04-25 18:25 |
|---|---|
| Airport | Myrtle Beach International Airport (KMYR) |
Arrival
| Time | 2026-04-25 19:51 |
|---|---|
| Airport | Long Island MacArthur Airport (KISP) |
| Time | Latitude | Longitude | Altitude | Speed | Heading |
|---|---|---|---|---|---|
| 2026-04-25 18:10 | 33.68333 | -78.92437 | 31 ft | 0 kts | 123° |
| 2026-04-25 18:16 | 33.68340 | -78.92449 | 30 ft | 3 kts | 123° |
| 2026-04-25 18:17 | 33.68350 | -78.92468 | 31 ft | 3 kts | 123° |
| 2026-04-25 18:17 | 33.68360 | -78.92487 | 30 ft | 3 kts | 123° |
| 2026-04-25 18:17 | 33.68371 | -78.92506 | 30 ft | 3 kts | 121° |
| 2026-04-25 18:17 | 33.68378 | -78.92527 | 30 ft | 3 kts | 91° |
| 2026-04-25 18:18 | 33.68375 | -78.92550 | 30 ft | 3 kts | 60° |
| 2026-04-25 18:18 | 33.68363 | -78.92569 | 31 ft | 3 kts | 31° |
| 2026-04-25 18:18 | 33.68346 | -78.92577 | 29 ft | 3 kts | 1° |
| 2026-04-25 18:18 | 33.68340 | -78.92578 | 31 ft | 0 kts | 353° |
| 2026-04-25 18:20 | 33.68342 | -78.92578 | 30 ft | 3 kts | 354° |
| 2026-04-25 18:20 | 33.68394 | -78.92587 | 31 ft | 9 kts | 349° |
| 2026-04-25 18:20 | 33.68474 | -78.92606 | 32 ft | 16 kts | 348° |
| 2026-04-25 18:21 | 33.68575 | -78.92631 | 32 ft | 14 kts | 348° |
| 2026-04-25 18:21 | 33.68652 | -78.92672 | 32 ft | 11 kts | 298° |
| 2026-04-25 18:21 | 33.68650 | -78.92756 | 32 ft | 11 kts | 266° |
| 2026-04-25 18:21 | 33.68710 | -78.92809 | 32 ft | 11 kts | 347° |
| 2026-04-25 18:22 | 33.68782 | -78.92827 | 32 ft | 10 kts | 349° |
| 2026-04-25 18:22 | 33.68826 | -78.92837 | 32 ft | 10 kts | 349° |
| 2026-04-25 18:22 | 33.68967 | -78.92853 | 32 ft | 17 kts | 8° |
| 2026-04-25 18:22 | 33.69077 | -78.92859 | 32 ft | 16 kts | 349° |
| 2026-04-25 18:23 | 33.69213 | -78.92892 | 32 ft | 18 kts | 348° |
| 2026-04-25 18:23 | 33.69265 | -78.92953 | 32 ft | 11 kts | 273° |
| 2026-04-25 18:23 | 33.69257 | -78.93027 | 32 ft | 0 kts | 259° |
| 2026-04-25 18:24 | 33.69255 | -78.93040 | 32 ft | 7 kts | 259° |
| 2026-04-25 18:24 | 33.69236 | -78.93118 | 33 ft | 9 kts | 237° |
| 2026-04-25 18:24 | 33.69183 | -78.93133 | 33 ft | 10 kts | 171° |
| 2026-04-25 18:24 | 33.69029 | -78.93096 | 35 ft | 50 kts | 168° |
| 2026-04-25 18:25 | 33.68406 | -78.92940 | 32 ft | 128 kts | 168° |
| 2026-04-25 18:25 | 33.67346 | -78.92670 | 233 ft | 169 kts | 169° |
| 2026-04-25 18:25 | 33.66222 | -78.92376 | 1246 ft | 163 kts | 169° |
| 2026-04-25 18:25 | 33.65101 | -78.92080 | 2039 ft | 170 kts | 169° |
| 2026-04-25 18:26 | 33.63879 | -78.91774 | 2197 ft | 189 kts | 169° |
| 2026-04-25 18:26 | 33.62537 | -78.91440 | 2325 ft | 206 kts | 169° |
| 2026-04-25 18:26 | 33.61138 | -78.90835 | 2448 ft | 230 kts | 147° |
| 2026-04-25 18:26 | 33.60109 | -78.89248 | 2695 ft | 259 kts | 110° |
| 2026-04-25 18:27 | 33.60084 | -78.87054 | 3294 ft | 274 kts | 73° |
| 2026-04-25 18:27 | 33.61133 | -78.85142 | 3948 ft | 281 kts | 38° |
| 2026-04-25 18:27 | 33.62888 | -78.84123 | 4678 ft | 284 kts | 13° |
| 2026-04-25 18:27 | 33.64844 | -78.83731 | 5409 ft | 286 kts | 4° |
| 2026-04-25 18:28 | 33.66836 | -78.83567 | 6152 ft | 288 kts | 1° |
| 2026-04-25 18:28 | 33.68850 | -78.83420 | 6862 ft | 290 kts | 2° |
| 2026-04-25 18:28 | 33.70869 | -78.83214 | 7581 ft | 292 kts | 4° |
| 2026-04-25 18:29 | 33.74928 | -78.82598 | 9051 ft | 295 kts | 6° |
| 2026-04-25 18:29 | 33.76964 | -78.82225 | 9793 ft | 296 kts | 6° |
| 2026-04-25 18:30 | 33.83541 | -78.80940 | 10584 ft | 347 kts | 7° |
| 2026-04-25 18:30 | 33.85951 | -78.80460 | 11122 ft | 353 kts | 7° |
| 2026-04-25 18:30 | 33.88388 | -78.79974 | 11774 ft | 356 kts | 7° |
| 2026-04-25 18:30 | 33.90810 | -78.79494 | 12421 ft | 358 kts | 7° |
| 2026-04-25 18:31 | 33.93277 | -78.79006 | 13091 ft | 360 kts | 7° |
| 2026-04-25 18:31 | 33.95753 | -78.78522 | 13735 ft | 362 kts | 7° |
| 2026-04-25 18:31 | 33.98255 | -78.78038 | 14303 ft | 365 kts | 7° |
| 2026-04-25 18:31 | 34.00782 | -78.77548 | 14863 ft | 368 kts | 7° |
| 2026-04-25 18:32 | 34.03318 | -78.77056 | 15406 ft | 371 kts | 7° |
| 2026-04-25 18:32 | 34.05880 | -78.76554 | 15944 ft | 374 kts | 7° |
| 2026-04-25 18:32 | 34.08458 | -78.76046 | 16474 ft | 377 kts | 7° |
| 2026-04-25 18:32 | 34.11055 | -78.75532 | 16994 ft | 380 kts | 7° |
| 2026-04-25 18:33 | 34.13679 | -78.75012 | 17516 ft | 383 kts | 7° |
| 2026-04-25 18:33 | 34.16326 | -78.74488 | 18040 ft | 386 kts | 7° |
| 2026-04-25 18:33 | 34.18986 | -78.73963 | 18488 ft | 389 kts | 7° |
| 2026-04-25 18:33 | 34.21671 | -78.73434 | 18908 ft | 392 kts | 7° |
| 2026-04-25 18:34 | 34.24380 | -78.72900 | 19314 ft | 396 kts | 7° |
| 2026-04-25 18:34 | 34.27106 | -78.72366 | 19712 ft | 399 kts | 7° |
| 2026-04-25 18:34 | 34.29858 | -78.71825 | 20115 ft | 402 kts | 7° |
| 2026-04-25 18:34 | 34.32601 | -78.71284 | 20510 ft | 405 kts | 7° |
| 2026-04-25 18:35 | 34.35391 | -78.70733 | 20906 ft | 408 kts | 7° |
| 2026-04-25 18:35 | 34.38205 | -78.70100 | 21295 ft | 413 kts | 12° |
| 2026-04-25 18:35 | 34.40923 | -78.68924 | 21678 ft | 419 kts | 23° |
| 2026-04-25 18:35 | 34.43451 | -78.67131 | 22109 ft | 425 kts | 34° |
| 2026-04-25 18:36 | 34.45857 | -78.65030 | 22485 ft | 428 kts | 34° |
| 2026-04-25 18:36 | 34.48285 | -78.62920 | 22856 ft | 430 kts | 34° |
| 2026-04-25 18:36 | 34.50731 | -78.60802 | 23224 ft | 433 kts | 34° |
| 2026-04-25 18:36 | 34.53195 | -78.58668 | 23582 ft | 436 kts | 34° |
| 2026-04-25 18:37 | 34.55671 | -78.56524 | 23908 ft | 439 kts | 34° |
| 2026-04-25 18:37 | 34.58163 | -78.54367 | 24231 ft | 441 kts | 34° |
| 2026-04-25 18:37 | 34.60666 | -78.52199 | 24554 ft | 443 kts | 34° |
| 2026-04-25 18:37 | 34.63180 | -78.50017 | 24894 ft | 445 kts | 34° |
| 2026-04-25 18:38 | 34.65670 | -78.47852 | 25214 ft | 447 kts | 34° |
| 2026-04-25 18:38 | 34.68201 | -78.45647 | 25522 ft | 449 kts | 34° |
| 2026-04-25 18:38 | 34.70744 | -78.43429 | 25832 ft | 451 kts | 34° |
| 2026-04-25 18:38 | 34.73299 | -78.41198 | 26147 ft | 453 kts | 34° |
| 2026-04-25 18:39 | 34.75863 | -78.38960 | 26452 ft | 455 kts | 34° |
| 2026-04-25 18:39 | 34.78441 | -78.36712 | 26760 ft | 457 kts | 34° |
| 2026-04-25 18:39 | 34.81031 | -78.34454 | 27059 ft | 459 kts | 34° |
| 2026-04-25 18:39 | 34.83632 | -78.32183 | 27360 ft | 461 kts | 34° |
| 2026-04-25 18:40 | 34.86242 | -78.29901 | 27647 ft | 463 kts | 34° |
| 2026-04-25 18:40 | 34.88872 | -78.27597 | 27935 ft | 465 kts | 34° |
| 2026-04-25 18:40 | 34.91499 | -78.25287 | 28213 ft | 467 kts | 34° |
| 2026-04-25 18:40 | 34.94136 | -78.22968 | 28478 ft | 469 kts | 34° |
| 2026-04-25 18:41 | 34.96793 | -78.20635 | 28739 ft | 471 kts | 34° |
| 2026-04-25 18:41 | 34.99457 | -78.18295 | 28998 ft | 473 kts | 34° |
| 2026-04-25 18:41 | 35.02132 | -78.15947 | 29261 ft | 475 kts | 34° |
| 2026-04-25 18:41 | 35.04813 | -78.13593 | 29510 ft | 476 kts | 34° |
| 2026-04-25 18:42 | 35.07513 | -78.11216 | 29770 ft | 478 kts | 34° |
| 2026-04-25 18:42 | 35.08390 | -78.10444 | 29855 ft | 479 kts | 34° |
| 2026-04-25 18:42 | 35.12881 | -78.06489 | 30391 ft | 477 kts | 34° |
| 2026-04-25 18:42 | 35.15601 | -78.04090 | 30728 ft | 476 kts | 34° |
| 2026-04-25 18:43 | 35.18279 | -78.01719 | 31063 ft | 475 kts | 34° |
| 2026-04-25 18:43 | 35.20918 | -77.99379 | 31390 ft | 474 kts | 33° |
| 2026-04-25 18:43 | 35.23583 | -77.97016 | 31723 ft | 473 kts | 33° |
| 2026-04-25 18:43 | 35.26243 | -77.94660 | 32050 ft | 472 kts | 33° |
| 2026-04-25 18:44 | 35.28902 | -77.92306 | 32376 ft | 470 kts | 33° |
| 2026-04-25 18:44 | 35.31554 | -77.89957 | 32699 ft | 470 kts | 33° |
| 2026-04-25 18:44 | 35.34195 | -77.87612 | 33020 ft | 469 kts | 33° |
| 2026-04-25 18:44 | 35.36838 | -77.85262 | 33354 ft | 468 kts | 33° |
| 2026-04-25 18:45 | 35.39463 | -77.82923 | 33669 ft | 467 kts | 33° |
| 2026-04-25 18:45 | 35.42085 | -77.80584 | 33974 ft | 466 kts | 33° |
| 2026-04-25 18:45 | 35.44702 | -77.78248 | 34242 ft | 465 kts | 33° |
| 2026-04-25 18:45 | 35.47317 | -77.75916 | 34505 ft | 464 kts | 32° |
| 2026-04-25 18:46 | 35.49926 | -77.73592 | 34763 ft | 463 kts | 32° |
| 2026-04-25 18:46 | 35.52540 | -77.71264 | 34861 ft | 461 kts | 32° |
| 2026-04-25 18:46 | 35.57674 | -77.66676 | 34855 ft | 458 kts | 32° |
| 2026-04-25 18:47 | 35.62820 | -77.62060 | 34854 ft | 458 kts | 32° |
| 2026-04-25 18:47 | 35.67967 | -77.57438 | 34853 ft | 458 kts | 32° |
| 2026-04-25 18:48 | 35.73111 | -77.52811 | 34854 ft | 458 kts | 32° |
| 2026-04-25 18:48 | 35.78255 | -77.48190 | 34853 ft | 458 kts | 32° |
| 2026-04-25 18:49 | 35.83410 | -77.43547 | 34849 ft | 458 kts | 32° |
| 2026-04-25 18:49 | 35.88512 | -77.38936 | 34852 ft | 458 kts | 32° |
| 2026-04-25 18:50 | 35.93659 | -77.34272 | 34855 ft | 458 kts | 32° |
| 2026-04-25 18:50 | 35.97966 | -77.30369 | 34855 ft | 458 kts | 32° |
| 2026-04-25 18:51 | 36.02239 | -77.26497 | 34852 ft | 459 kts | 32° |
| 2026-04-25 18:51 | 36.08219 | -77.21069 | 34847 ft | 459 kts | 32° |
| 2026-04-25 18:52 | 36.13368 | -77.16377 | 34845 ft | 460 kts | 32° |
| 2026-04-25 18:52 | 36.18526 | -77.11664 | 34847 ft | 460 kts | 32° |
| 2026-04-25 18:53 | 36.23691 | -77.06945 | 34850 ft | 460 kts | 32° |
| 2026-04-25 18:53 | 36.28848 | -77.02228 | 34848 ft | 461 kts | 32° |
| 2026-04-25 18:54 | 36.36554 | -76.95171 | 34851 ft | 461 kts | 32° |
| 2026-04-25 18:55 | 36.41712 | -76.90436 | 34849 ft | 461 kts | 32° |
| 2026-04-25 18:55 | 36.46869 | -76.85686 | 34850 ft | 461 kts | 32° |
| 2026-04-25 18:56 | 36.52036 | -76.80914 | 34854 ft | 462 kts | 32° |
| 2026-04-25 18:56 | 36.57161 | -76.76168 | 34857 ft | 462 kts | 32° |
| 2026-04-25 18:57 | 36.62318 | -76.71400 | 34868 ft | 462 kts | 32° |
| 2026-04-25 18:57 | 36.67479 | -76.66622 | 34868 ft | 462 kts | 32° |
| 2026-04-25 18:58 | 36.72641 | -76.61833 | 34867 ft | 462 kts | 32° |
| 2026-04-25 18:58 | 36.80350 | -76.54673 | 34886 ft | 462 kts | 32° |
| 2026-04-25 18:59 | 36.90641 | -76.45054 | 34887 ft | 462 kts | 32° |
| 2026-04-25 19:00 | 36.98369 | -76.37829 | 34911 ft | 461 kts | 32° |
| 2026-04-25 19:01 | 37.06049 | -76.30632 | 34889 ft | 461 kts | 32° |
| 2026-04-25 19:01 | 37.11185 | -76.25796 | 34892 ft | 461 kts | 32° |
| 2026-04-25 19:02 | 37.18846 | -76.18568 | 34904 ft | 461 kts | 32° |
| 2026-04-25 19:03 | 37.25707 | -76.12090 | 34902 ft | 461 kts | 32° |
| 2026-04-25 19:03 | 37.31675 | -76.06443 | 34904 ft | 461 kts | 32° |
| 2026-04-25 19:04 | 37.39314 | -75.99181 | 34912 ft | 460 kts | 32° |
| 2026-04-25 19:05 | 37.49535 | -75.89461 | 34925 ft | 460 kts | 32° |
| 2026-04-25 19:06 | 37.54725 | -75.84778 | 34933 ft | 454 kts | 25° |
| 2026-04-25 19:06 | 37.62854 | -75.78705 | 34935 ft | 454 kts | 25° |
| 2026-04-25 19:07 | 37.71007 | -75.72587 | 34932 ft | 454 kts | 25° |
| 2026-04-25 19:08 | 37.75380 | -75.69292 | 34930 ft | 454 kts | 25° |
| 2026-04-25 19:09 | 37.83792 | -75.62953 | 34951 ft | 455 kts | 25° |
| 2026-04-25 19:10 | 37.92624 | -75.55499 | 34955 ft | 459 kts | 30° |
| 2026-04-25 19:10 | 37.97826 | -75.50813 | 34956 ft | 459 kts | 30° |
| 2026-04-25 19:11 | 38.03019 | -75.46218 | 34957 ft | 459 kts | 29° |
| 2026-04-25 19:11 | 38.08309 | -75.41676 | 34950 ft | 458 kts | 27° |
| 2026-04-25 19:12 | 38.13684 | -75.37349 | 34958 ft | 457 kts | 26° |
| 2026-04-25 19:12 | 38.19087 | -75.33040 | 34977 ft | 458 kts | 27° |
| 2026-04-25 19:13 | 38.24491 | -75.28719 | 34968 ft | 456 kts | 22° |
| 2026-04-25 19:13 | 38.30276 | -75.25618 | 34973 ft | 450 kts | 15° |
| 2026-04-25 19:14 | 38.36108 | -75.22808 | 34971 ft | 451 kts | 15° |
| 2026-04-25 19:14 | 38.41982 | -75.19965 | 34967 ft | 452 kts | 15° |
| 2026-04-25 19:15 | 38.47864 | -75.17105 | 34972 ft | 453 kts | 15° |
| 2026-04-25 19:15 | 38.53758 | -75.14246 | 34981 ft | 453 kts | 15° |
| 2026-04-25 19:16 | 38.59656 | -75.11384 | 35004 ft | 454 kts | 15° |
| 2026-04-25 19:16 | 38.65395 | -75.07919 | 35009 ft | 464 kts | 29° |
| 2026-04-25 19:17 | 38.70368 | -75.02544 | 35007 ft | 470 kts | 37° |
| 2026-04-25 19:17 | 38.75238 | -74.96922 | 34698 ft | 471 kts | 37° |
| 2026-04-25 19:17 | 38.77677 | -74.94106 | 34461 ft | 472 kts | 37° |
| 2026-04-25 19:18 | 38.80146 | -74.91313 | 34238 ft | 473 kts | 36° |
| 2026-04-25 19:18 | 38.82675 | -74.88608 | 34012 ft | 473 kts | 34° |
| 2026-04-25 19:18 | 38.85217 | -74.86000 | 33748 ft | 474 kts | 33° |
| 2026-04-25 19:18 | 38.87811 | -74.83388 | 33488 ft | 474 kts | 33° |
| 2026-04-25 19:19 | 38.90407 | -74.80774 | 33226 ft | 473 kts | 33° |
| 2026-04-25 19:19 | 38.92990 | -74.78141 | 32966 ft | 472 kts | 34° |
| 2026-04-25 19:19 | 38.95546 | -74.75502 | 32704 ft | 471 kts | 34° |
| 2026-04-25 19:19 | 38.97228 | -74.73749 | 32535 ft | 470 kts | 34° |
| 2026-04-25 19:20 | 39.00601 | -74.70204 | 32041 ft | 466 kts | 35° |
| 2026-04-25 19:20 | 39.03101 | -74.67560 | 31482 ft | 464 kts | 35° |
| 2026-04-25 19:20 | 39.05598 | -74.64916 | 30935 ft | 462 kts | 35° |
| 2026-04-25 19:20 | 39.08049 | -74.62326 | 30422 ft | 460 kts | 35° |
| 2026-04-25 19:21 | 39.10524 | -74.59710 | 29845 ft | 459 kts | 35° |
| 2026-04-25 19:21 | 39.15423 | -74.54529 | 28780 ft | 451 kts | 35° |
| 2026-04-25 19:21 | 39.17828 | -74.51949 | 28269 ft | 448 kts | 36° |
| 2026-04-25 19:22 | 39.20202 | -74.49370 | 27757 ft | 444 kts | 36° |
| 2026-04-25 19:22 | 39.22517 | -74.46831 | 27265 ft | 441 kts | 36° |
| 2026-04-25 19:22 | 39.27175 | -74.41704 | 26288 ft | 434 kts | 36° |
| 2026-04-25 19:23 | 39.29432 | -74.39223 | 25823 ft | 430 kts | 36° |
| 2026-04-25 19:23 | 39.33953 | -74.34249 | 24921 ft | 422 kts | 36° |
| 2026-04-25 19:23 | 39.36179 | -74.31799 | 24477 ft | 418 kts | 36° |
| 2026-04-25 19:24 | 39.38384 | -74.29369 | 24035 ft | 415 kts | 36° |
| 2026-04-25 19:24 | 39.40573 | -74.26954 | 23570 ft | 412 kts | 37° |
| 2026-04-25 19:24 | 39.44861 | -74.22219 | 22645 ft | 403 kts | 36° |
| 2026-04-25 19:25 | 39.49074 | -74.17542 | 21762 ft | 394 kts | 36° |
| 2026-04-25 19:25 | 39.51140 | -74.15242 | 21327 ft | 390 kts | 36° |
| 2026-04-25 19:25 | 39.53076 | -74.12773 | 20905 ft | 391 kts | 46° |
| 2026-04-25 19:26 | 39.54795 | -74.10051 | 20669 ft | 388 kts | 46° |
| 2026-04-25 19:26 | 39.56495 | -74.07383 | 20391 ft | 386 kts | 46° |
| 2026-04-25 19:26 | 39.58204 | -74.04708 | 20118 ft | 384 kts | 46° |
| 2026-04-25 19:26 | 39.59907 | -74.02044 | 19840 ft | 383 kts | 46° |
| 2026-04-25 19:27 | 39.61601 | -73.99392 | 19570 ft | 381 kts | 46° |
| 2026-04-25 19:27 | 39.62173 | -73.98496 | 19473 ft | 381 kts | 45° |
| 2026-04-25 19:27 | 39.64963 | -73.94115 | 19028 ft | 378 kts | 45° |
| 2026-04-25 19:27 | 39.66634 | -73.91489 | 18753 ft | 376 kts | 45° |
| 2026-04-25 19:28 | 39.68297 | -73.88871 | 18486 ft | 374 kts | 45° |
| 2026-04-25 19:28 | 39.69952 | -73.86271 | 18078 ft | 373 kts | 45° |
| 2026-04-25 19:28 | 39.71596 | -73.83678 | 17803 ft | 370 kts | 45° |
| 2026-04-25 19:28 | 39.73229 | -73.81101 | 17544 ft | 369 kts | 46° |
| 2026-04-25 19:29 | 39.74857 | -73.78527 | 17274 ft | 368 kts | 46° |
| 2026-04-25 19:29 | 39.76483 | -73.75960 | 17009 ft | 367 kts | 46° |
| 2026-04-25 19:29 | 39.78101 | -73.73406 | 16745 ft | 365 kts | 46° |
| 2026-04-25 19:29 | 39.79712 | -73.70862 | 16509 ft | 364 kts | 46° |
| 2026-04-25 19:30 | 39.81316 | -73.68322 | 16240 ft | 363 kts | 46° |
| 2026-04-25 19:30 | 39.82917 | -73.65788 | 15973 ft | 362 kts | 46° |
| 2026-04-25 19:30 | 39.84492 | -73.63292 | 15710 ft | 361 kts | 46° |
| 2026-04-25 19:30 | 39.86080 | -73.60768 | 15471 ft | 360 kts | 46° |
| 2026-04-25 19:31 | 39.87666 | -73.58245 | 15194 ft | 359 kts | 46° |
| 2026-04-25 19:31 | 39.89244 | -73.55739 | 14937 ft | 358 kts | 46° |
| 2026-04-25 19:31 | 39.90915 | -73.53363 | 14683 ft | 353 kts | 38° |
| 2026-04-25 19:31 | 39.92738 | -73.51218 | 14434 ft | 352 kts | 38° |
| 2026-04-25 19:32 | 39.94556 | -73.49078 | 14180 ft | 352 kts | 38° |
| 2026-04-25 19:32 | 39.96367 | -73.46941 | 13928 ft | 351 kts | 38° |
| 2026-04-25 19:32 | 39.98172 | -73.44803 | 13652 ft | 350 kts | 38° |
| 2026-04-25 19:32 | 39.98757 | -73.44109 | 13573 ft | 350 kts | 38° |
| 2026-04-25 19:33 | 40.01754 | -73.40544 | 13166 ft | 347 kts | 38° |
| 2026-04-25 19:33 | 40.03540 | -73.38425 | 12908 ft | 345 kts | 38° |
| 2026-04-25 19:33 | 40.05312 | -73.36325 | 12662 ft | 344 kts | 38° |
| 2026-04-25 19:33 | 40.07059 | -73.34253 | 12417 ft | 342 kts | 38° |
| 2026-04-25 19:34 | 40.08813 | -73.32167 | 12167 ft | 341 kts | 38° |
| 2026-04-25 19:34 | 40.10565 | -73.30084 | 11912 ft | 339 kts | 38° |
| 2026-04-25 19:34 | 40.12305 | -73.28016 | 11685 ft | 338 kts | 39° |
| 2026-04-25 19:34 | 40.14041 | -73.25955 | 11439 ft | 336 kts | 38° |
| 2026-04-25 19:35 | 40.15766 | -73.23901 | 11191 ft | 335 kts | 39° |
| 2026-04-25 19:35 | 40.17481 | -73.21853 | 10962 ft | 333 kts | 39° |
| 2026-04-25 19:35 | 40.19188 | -73.19808 | 10727 ft | 332 kts | 39° |
| 2026-04-25 19:35 | 40.20884 | -73.17776 | 10484 ft | 330 kts | 39° |
| 2026-04-25 19:36 | 40.22576 | -73.15754 | 10257 ft | 327 kts | 39° |
| 2026-04-25 19:36 | 40.23675 | -73.14439 | 10162 ft | 319 kts | 39° |
| 2026-04-25 19:36 | 40.24216 | -73.13791 | 10115 ft | 316 kts | 39° |
| 2026-04-25 19:36 | 40.24868 | -73.13005 | 9957 ft | 315 kts | 39° |
| 2026-04-25 19:37 | 40.26474 | -73.11074 | 9706 ft | 308 kts | 39° |
| 2026-04-25 19:37 | 40.27510 | -73.09829 | 9625 ft | 304 kts | 39° |
| 2026-04-25 19:37 | 40.29068 | -73.07964 | 9498 ft | 303 kts | 39° |
| 2026-04-25 19:37 | 40.30624 | -73.06109 | 9303 ft | 302 kts | 39° |
| 2026-04-25 19:38 | 40.32173 | -73.04262 | 9083 ft | 300 kts | 39° |
| 2026-04-25 19:38 | 40.34211 | -73.01823 | 8785 ft | 299 kts | 39° |
| 2026-04-25 19:38 | 40.35246 | -73.00581 | 8645 ft | 298 kts | 39° |
| 2026-04-25 19:38 | 40.36771 | -72.98749 | 8420 ft | 297 kts | 39° |
| 2026-04-25 19:39 | 40.38286 | -72.96926 | 8206 ft | 295 kts | 40° |
| 2026-04-25 19:39 | 40.39803 | -72.95099 | 7986 ft | 295 kts | 40° |
| 2026-04-25 19:39 | 40.41310 | -72.93286 | 7770 ft | 294 kts | 40° |
| 2026-04-25 19:39 | 40.42795 | -72.91498 | 7554 ft | 293 kts | 40° |
| 2026-04-25 19:40 | 40.44292 | -72.89694 | 7338 ft | 291 kts | 40° |
| 2026-04-25 19:40 | 40.45776 | -72.87901 | 7124 ft | 290 kts | 40° |
| 2026-04-25 19:40 | 40.47254 | -72.86115 | 6910 ft | 288 kts | 40° |
| 2026-04-25 19:40 | 40.48725 | -72.84339 | 6688 ft | 286 kts | 40° |
| 2026-04-25 19:41 | 40.50191 | -72.82571 | 6473 ft | 285 kts | 40° |
| 2026-04-25 19:41 | 40.51775 | -72.81059 | 6251 ft | 280 kts | 25° |
| 2026-04-25 19:41 | 40.53569 | -72.80155 | 6041 ft | 274 kts | 11° |
| 2026-04-25 19:41 | 40.54809 | -72.79904 | 5903 ft | 271 kts | 1° |
| 2026-04-25 19:42 | 40.57184 | -72.80582 | 5619 ft | 258 kts | 322° |
| 2026-04-25 19:42 | 40.58248 | -72.82370 | 5436 ft | 246 kts | 293° |
| 2026-04-25 19:42 | 40.58863 | -72.84427 | 5245 ft | 238 kts | 288° |
| 2026-04-25 19:42 | 40.59369 | -72.86473 | 5072 ft | 233 kts | 287° |
| 2026-04-25 19:43 | 40.59845 | -72.88510 | 4915 ft | 233 kts | 286° |
| 2026-04-25 19:43 | 40.60324 | -72.90548 | 4705 ft | 233 kts | 287° |
| 2026-04-25 19:43 | 40.60805 | -72.92561 | 4521 ft | 227 kts | 287° |
| 2026-04-25 19:43 | 40.61280 | -72.94520 | 4349 ft | 220 kts | 287° |
| 2026-04-25 19:44 | 40.61743 | -72.96414 | 4172 ft | 217 kts | 287° |
| 2026-04-25 19:44 | 40.62209 | -72.98297 | 4021 ft | 216 kts | 287° |
| 2026-04-25 19:44 | 40.62678 | -73.00175 | 3856 ft | 216 kts | 287° |
| 2026-04-25 19:44 | 40.63141 | -73.02030 | 3681 ft | 216 kts | 288° |
| 2026-04-25 19:45 | 40.63612 | -73.03920 | 3522 ft | 217 kts | 288° |
| 2026-04-25 19:45 | 40.64084 | -73.05815 | 3253 ft | 218 kts | 288° |
| 2026-04-25 19:45 | 40.64558 | -73.07709 | 2933 ft | 218 kts | 288° |
| 2026-04-25 19:45 | 40.65024 | -73.09566 | 2619 ft | 209 kts | 288° |
| 2026-04-25 19:46 | 40.65474 | -73.11363 | 2301 ft | 204 kts | 288° |
| 2026-04-25 19:46 | 40.65911 | -73.13110 | 2052 ft | 199 kts | 288° |
| 2026-04-25 19:46 | 40.66340 | -73.14833 | 1994 ft | 197 kts | 287° |
| 2026-04-25 19:46 | 40.66760 | -73.16520 | 2011 ft | 182 kts | 287° |
| 2026-04-25 19:47 | 40.67140 | -73.18044 | 2005 ft | 170 kts | 287° |
| 2026-04-25 19:47 | 40.67528 | -73.19467 | 2004 ft | 166 kts | 297° |
| 2026-04-25 19:47 | 40.68241 | -73.20625 | 2006 ft | 162 kts | 324° |
| 2026-04-25 19:47 | 40.69221 | -73.21299 | 2017 ft | 157 kts | 349° |
| 2026-04-25 19:48 | 40.70288 | -73.21415 | 2019 ft | 151 kts | 13° |
| 2026-04-25 19:48 | 40.71271 | -73.21010 | 2006 ft | 147 kts | 35° |
| 2026-04-25 19:48 | 40.72053 | -73.20190 | 1978 ft | 142 kts | 50° |
| 2026-04-25 19:48 | 40.72754 | -73.19270 | 1837 ft | 142 kts | 51° |
| 2026-04-25 19:49 | 40.73453 | -73.18353 | 1676 ft | 141 kts | 51° |
| 2026-04-25 19:49 | 40.73923 | -73.17736 | 1539 ft | 141 kts | 50° |
| 2026-04-25 19:49 | 40.74842 | -73.16530 | 1301 ft | 140 kts | 50° |
| 2026-04-25 19:49 | 40.75530 | -73.15627 | 1097 ft | 139 kts | 50° |
| 2026-04-25 19:50 | 40.76880 | -73.13853 | 688 ft | 140 kts | 51° |
| 2026-04-25 19:50 | 40.77562 | -73.12957 | 475 ft | 141 kts | 50° |
| 2026-04-25 19:50 | 40.78264 | -73.12053 | 285 ft | 142 kts | 51° |
| 2026-04-25 19:51 | 40.78954 | -73.11134 | 112 ft | 140 kts | 49° |
| 2026-04-25 19:51 | 40.79562 | -73.10323 | 100 ft | 93 kts | 44° |
| 2026-04-25 19:51 | 40.79830 | -73.09970 | 99 ft | 33 kts | 45° |
| 2026-04-25 19:51 | 40.79980 | -73.09774 | 101 ft | 28 kts | 44° |
| 2026-04-25 19:52 | 40.80117 | -73.09594 | 99 ft | 26 kts | 46° |
| 2026-04-25 19:52 | 40.80159 | -73.09485 | 100 ft | 9 kts | 129° |
| 2026-04-25 19:52 | 40.80114 | -73.09472 | 98 ft | 0 kts | 177° |
| 2026-04-25 19:53 | 40.80110 | -73.09472 | 97 ft | 3 kts | 177° |
| 2026-04-25 19:53 | 40.80033 | -73.09470 | 96 ft | 14 kts | 180° |
| 2026-04-25 19:54 | 40.79941 | -73.09471 | 95 ft | 12 kts | 180° |
| 2026-04-25 19:54 | 40.79845 | -73.09471 | 96 ft | 20 kts | 180° |
| 2026-04-25 19:54 | 40.79693 | -73.09470 | 97 ft | 21 kts | 180° |
| 2026-04-25 19:54 | 40.79601 | -73.09470 | 95 ft | 19 kts | 180° |
| 2026-04-25 19:55 | 40.79404 | -73.09469 | 98 ft | 24 kts | 179° |
| 2026-04-25 19:55 | 40.79262 | -73.09460 | 96 ft | 17 kts | 162° |
| 2026-04-25 19:55 | 40.79170 | -73.09493 | 95 ft | 12 kts | 223° |
| 2026-04-25 19:55 | 40.79115 | -73.09555 | 95 ft | 10 kts | 211° |
| 2026-04-25 19:56 | 40.79059 | -73.09571 | 97 ft | 6 kts | 181° |
| 2026-04-25 19:56 | 40.79045 | -73.09571 | 96 ft | 0 kts | 181° |